sensor_id;sensor_type;location;lat;lon;timestamp;P1;durP1;ratioP1;P2;durP2;ratioP2
54929;SDS011;40833;53.238;6.576;2023-09-19T00:01:07;10.03;;;1.50;;
54929;SDS011;40833;53.238;6.576;2023-09-19T00:03:34;11.47;;;1.33;;
54929;SDS011;40833;53.238;6.576;2023-09-19T00:06:02;12.50;;;1.70;;
54929;SDS011;40833;53.238;6.576;2023-09-19T00:08:33;11.57;;;1.30;;
54929;SDS011;40833;53.238;6.576;2023-09-19T00:10:59;9.17;;;1.70;;
54929;SDS011;40833;53.238;6.576;2023-09-19T00:13:31;12.98;;;1.05;;
54929;SDS011;40833;53.238;6.576;2023-09-19T00:15:58;14.43;;;2.23;;
54929;SDS011;40833;53.238;6.576;2023-09-19T00:18:25;13.53;;;1.77;;
54929;SDS011;40833;53.238;6.576;2023-09-19T00:20:58;11.37;;;1.23;;
54929;SDS011;40833;53.238;6.576;2023-09-19T00:23:24;15.63;;;1.57;;
54929;SDS011;40833;53.238;6.576;2023-09-19T00:25:50;10.13;;;1.63;;
54929;SDS011;40833;53.238;6.576;2023-09-19T00:28:16;11.03;;;1.17;;
54929;SDS011;40833;53.238;6.576;2023-09-19T00:30:43;11.33;;;1.70;;
54929;SDS011;40833;53.238;6.576;2023-09-19T00:33:10;11.87;;;0.97;;
54929;SDS011;40833;53.238;6.576;2023-09-19T00:35:46;8.05;;;0.93;;
54929;SDS011;40833;53.238;6.576;2023-09-19T00:38:16;12.90;;;1.17;;
54929;SDS011;40833;53.238;6.576;2023-09-19T00:40:45;10.47;;;1.23;;
54929;SDS011;40833;53.238;6.576;2023-09-19T00:43:11;7.23;;;1.07;;
54929;SDS011;40833;53.238;6.576;2023-09-19T00:45:37;11.53;;;1.13;;
54929;SDS011;40833;53.238;6.576;2023-09-19T00:48:04;10.47;;;0.93;;
54929;SDS011;40833;53.238;6.576;2023-09-19T00:50:34;11.27;;;1.30;;
54929;SDS011;40833;53.238;6.576;2023-09-19T00:53:01;12.27;;;1.50;;
54929;SDS011;40833;53.238;6.576;2023-09-19T00:55:33;12.43;;;1.33;;
54929;SDS011;40833;53.238;6.576;2023-09-19T00:58:00;12.57;;;1.20;;
54929;SDS011;40833;53.238;6.576;2023-09-19T01:00:26;11.37;;;1.43;;
54929;SDS011;40833;53.238;6.576;2023-09-19T01:02:52;14.73;;;1.37;;
54929;SDS011;40833;53.238;6.576;2023-09-19T01:05:18;10.00;;;1.10;;
54929;SDS011;40833;53.238;6.576;2023-09-19T01:07:44;12.07;;;1.30;;
54929;SDS011;40833;53.238;6.576;2023-09-19T01:10:14;8.87;;;1.17;;
54929;SDS011;40833;53.238;6.576;2023-09-19T01:12:48;9.27;;;1.45;;
54929;SDS011;40833;53.238;6.576;2023-09-19T01:15:47;13.13;;;1.43;;
54929;SDS011;40833;53.238;6.576;2023-09-19T01:24:00;12.17;;;1.27;;
54929;SDS011;40833;53.238;6.576;2023-09-19T01:29:34;8.57;;;1.20;;
54929;SDS011;40833;53.238;6.576;2023-09-19T01:32:04;12.37;;;1.57;;
54929;SDS011;40833;53.238;6.576;2023-09-19T01:37:29;13.03;;;1.27;;
54929;SDS011;40833;53.238;6.576;2023-09-19T01:51:18;11.00;;;1.30;;
54929;SDS011;40833;53.238;6.576;2023-09-19T01:53:53;10.17;;;1.07;;
54929;SDS011;40833;53.238;6.576;2023-09-19T01:56:38;9.13;;;1.73;;
54929;SDS011;40833;53.238;6.576;2023-09-19T01:59:21;11.57;;;1.70;;
54929;SDS011;40833;53.238;6.576;2023-09-19T02:01:56;9.00;;;1.40;;
54929;SDS011;40833;53.238;6.576;2023-09-19T02:04:23;11.03;;;1.20;;
54929;SDS011;40833;53.238;6.576;2023-09-19T02:06:49;11.67;;;1.60;;
54929;SDS011;40833;53.238;6.576;2023-09-19T02:09:14;7.63;;;1.17;;
54929;SDS011;40833;53.238;6.576;2023-09-19T02:11:41;12.17;;;1.33;;
54929;SDS011;40833;53.238;6.576;2023-09-19T02:14:07;12.37;;;1.37;;
54929;SDS011;40833;53.238;6.576;2023-09-19T02:16:33;8.87;;;1.00;;
54929;SDS011;40833;53.238;6.576;2023-09-19T02:18:59;16.57;;;1.80;;
54929;SDS011;40833;53.238;6.576;2023-09-19T02:21:25;14.77;;;1.27;;
54929;SDS011;40833;53.238;6.576;2023-09-19T02:23:54;12.70;;;1.90;;
54929;SDS011;40833;53.238;6.576;2023-09-19T02:26:20;9.27;;;1.33;;
54929;SDS011;40833;53.238;6.576;2023-09-19T02:28:47;9.47;;;1.60;;
54929;SDS011;40833;53.238;6.576;2023-09-19T02:31:12;7.83;;;1.17;;
54929;SDS011;40833;53.238;6.576;2023-09-19T02:33:38;16.83;;;1.27;;
54929;SDS011;40833;53.238;6.576;2023-09-19T02:36:04;14.77;;;1.20;;
54929;SDS011;40833;53.238;6.576;2023-09-19T02:38:30;9.83;;;0.90;;
54929;SDS011;40833;53.238;6.576;2023-09-19T02:40:56;17.07;;;1.57;;
54929;SDS011;40833;53.238;6.576;2023-09-19T02:43:22;12.03;;;1.23;;
54929;SDS011;40833;53.238;6.576;2023-09-19T02:45:48;10.30;;;0.87;;
54929;SDS011;40833;53.238;6.576;2023-09-19T02:48:15;13.30;;;1.73;;
54929;SDS011;40833;53.238;6.576;2023-09-19T02:50:41;10.20;;;1.40;;
54929;SDS011;40833;53.238;6.576;2023-09-19T02:53:08;14.80;;;1.57;;
54929;SDS011;40833;53.238;6.576;2023-09-19T02:55:37;13.40;;;1.40;;
54929;SDS011;40833;53.238;6.576;2023-09-19T02:58:05;7.50;;;1.17;;
54929;SDS011;40833;53.238;6.576;2023-09-19T03:00:32;14.23;;;1.50;;
54929;SDS011;40833;53.238;6.576;2023-09-19T03:02:59;6.93;;;0.90;;
54929;SDS011;40833;53.238;6.576;2023-09-19T03:05:24;13.97;;;1.43;;
54929;SDS011;40833;53.238;6.576;2023-09-19T03:07:51;10.10;;;1.30;;
54929;SDS011;40833;53.238;6.576;2023-09-19T03:10:18;12.10;;;1.23;;
54929;SDS011;40833;53.238;6.576;2023-09-19T03:12:44;13.30;;;1.70;;
54929;SDS011;40833;53.238;6.576;2023-09-19T03:15:11;9.13;;;1.03;;
54929;SDS011;40833;53.238;6.576;2023-09-19T03:17:36;7.83;;;1.03;;
54929;SDS011;40833;53.238;6.576;2023-09-19T03:20:02;8.70;;;0.90;;
54929;SDS011;40833;53.238;6.576;2023-09-19T03:22:29;8.67;;;1.37;;
54929;SDS011;40833;53.238;6.576;2023-09-19T03:24:55;10.33;;;0.83;;
54929;SDS011;40833;53.238;6.576;2023-09-19T03:27:21;10.00;;;1.17;;
54929;SDS011;40833;53.238;6.576;2023-09-19T03:29:47;18.33;;;2.43;;
54929;SDS011;40833;53.238;6.576;2023-09-19T03:32:12;11.03;;;1.67;;
54929;SDS011;40833;53.238;6.576;2023-09-19T03:34:38;7.67;;;1.37;;
54929;SDS011;40833;53.238;6.576;2023-09-19T03:37:11;5.67;;;1.03;;
54929;SDS011;40833;53.238;6.576;2023-09-19T03:39:37;8.67;;;0.90;;
54929;SDS011;40833;53.238;6.576;2023-09-19T03:42:03;4.83;;;0.87;;
54929;SDS011;40833;53.238;6.576;2023-09-19T03:44:29;11.03;;;1.10;;
54929;SDS011;40833;53.238;6.576;2023-09-19T03:46:56;14.97;;;1.43;;
54929;SDS011;40833;53.238;6.576;2023-09-19T03:49:22;7.70;;;1.00;;
54929;SDS011;40833;53.238;6.576;2023-09-19T03:51:48;6.93;;;1.20;;
54929;SDS011;40833;53.238;6.576;2023-09-19T03:54:13;11.70;;;1.40;;
54929;SDS011;40833;53.238;6.576;2023-09-19T03:56:39;6.67;;;0.60;;
54929;SDS011;40833;53.238;6.576;2023-09-19T03:59:05;8.17;;;1.70;;
54929;SDS011;40833;53.238;6.576;2023-09-19T04:01:31;8.07;;;0.90;;
54929;SDS011;40833;53.238;6.576;2023-09-19T04:03:57;17.93;;;1.90;;
54929;SDS011;40833;53.238;6.576;2023-09-19T04:06:23;3.63;;;1.07;;
54929;SDS011;40833;53.238;6.576;2023-09-19T04:08:49;8.30;;;1.00;;
54929;SDS011;40833;53.238;6.576;2023-09-19T04:11:15;12.20;;;1.40;;
54929;SDS011;40833;53.238;6.576;2023-09-19T04:13:40;13.17;;;1.20;;
54929;SDS011;40833;53.238;6.576;2023-09-19T04:16:06;11.07;;;1.57;;
54929;SDS011;40833;53.238;6.576;2023-09-19T04:18:32;10.60;;;1.50;;
54929;SDS011;40833;53.238;6.576;2023-09-19T04:21:02;7.53;;;1.20;;
54929;SDS011;40833;53.238;6.576;2023-09-19T04:23:29;10.57;;;2.30;;
54929;SDS011;40833;53.238;6.576;2023-09-19T04:25:56;9.33;;;1.00;;
54929;SDS011;40833;53.238;6.576;2023-09-19T04:28:22;6.93;;;1.20;;
54929;SDS011;40833;53.238;6.576;2023-09-19T04:30:49;10.57;;;1.30;;
54929;SDS011;40833;53.238;6.576;2023-09-19T04:33:14;18.93;;;1.23;;
54929;SDS011;40833;53.238;6.576;2023-09-19T04:35:40;9.57;;;1.20;;
54929;SDS011;40833;53.238;6.576;2023-09-19T04:38:07;10.10;;;1.37;;
54929;SDS011;40833;53.238;6.576;2023-09-19T04:40:33;12.50;;;1.40;;
54929;SDS011;40833;53.238;6.576;2023-09-19T04:42:59;11.23;;;1.37;;
54929;SDS011;40833;53.238;6.576;2023-09-19T04:45:25;14.27;;;1.33;;
54929;SDS011;40833;53.238;6.576;2023-09-19T04:47:52;10.93;;;1.43;;
54929;SDS011;40833;53.238;6.576;2023-09-19T04:50:18;5.83;;;1.30;;
54929;SDS011;40833;53.238;6.576;2023-09-19T04:52:46;11.80;;;0.87;;
54929;SDS011;40833;53.238;6.576;2023-09-19T04:55:15;9.23;;;1.20;;
54929;SDS011;40833;53.238;6.576;2023-09-19T04:57:49;7.10;;;1.20;;
54929;SDS011;40833;53.238;6.576;2023-09-19T05:00:16;8.97;;;1.20;;
54929;SDS011;40833;53.238;6.576;2023-09-19T05:02:44;11.47;;;1.10;;
54929;SDS011;40833;53.238;6.576;2023-09-19T05:05:14;16.90;;;2.00;;
54929;SDS011;40833;53.238;6.576;2023-09-19T05:07:42;15.60;;;1.00;;
54929;SDS011;40833;53.238;6.576;2023-09-19T05:10:09;10.30;;;0.97;;
54929;SDS011;40833;53.238;6.576;2023-09-19T05:12:36;9.60;;;1.47;;
54929;SDS011;40833;53.238;6.576;2023-09-19T05:15:03;6.57;;;1.30;;
54929;SDS011;40833;53.238;6.576;2023-09-19T05:17:30;12.10;;;2.53;;
54929;SDS011;40833;53.238;6.576;2023-09-19T05:19:56;14.83;;;1.33;;
54929;SDS011;40833;53.238;6.576;2023-09-19T05:22:39;9.03;;;1.20;;
54929;SDS011;40833;53.238;6.576;2023-09-19T05:25:06;11.43;;;1.80;;
54929;SDS011;40833;53.238;6.576;2023-09-19T05:27:32;9.03;;;1.27;;
54929;SDS011;40833;53.238;6.576;2023-09-19T05:29:58;8.03;;;1.47;;
54929;SDS011;40833;53.238;6.576;2023-09-19T05:32:24;9.57;;;1.00;;
54929;SDS011;40833;53.238;6.576;2023-09-19T05:34:50;11.67;;;1.33;;
54929;SDS011;40833;53.238;6.576;2023-09-19T05:37:21;10.17;;;1.20;;
54929;SDS011;40833;53.238;6.576;2023-09-19T05:39:48;8.43;;;1.00;;
54929;SDS011;40833;53.238;6.576;2023-09-19T05:42:14;9.50;;;1.40;;
54929;SDS011;40833;53.238;6.576;2023-09-19T05:44:39;11.97;;;1.07;;
54929;SDS011;40833;53.238;6.576;2023-09-19T05:47:05;14.33;;;2.03;;
54929;SDS011;40833;53.238;6.576;2023-09-19T05:49:34;9.13;;;1.07;;
54929;SDS011;40833;53.238;6.576;2023-09-19T05:52:03;7.13;;;1.00;;
54929;SDS011;40833;53.238;6.576;2023-09-19T05:54:33;10.30;;;1.47;;
54929;SDS011;40833;53.238;6.576;2023-09-19T05:57:02;10.23;;;1.67;;
54929;SDS011;40833;53.238;6.576;2023-09-19T05:59:28;8.90;;;1.60;;
54929;SDS011;40833;53.238;6.576;2023-09-19T06:01:53;13.47;;;1.10;;
54929;SDS011;40833;53.238;6.576;2023-09-19T06:04:20;12.07;;;1.90;;
54929;SDS011;40833;53.238;6.576;2023-09-19T06:06:46;12.53;;;1.40;;
54929;SDS011;40833;53.238;6.576;2023-09-19T06:09:14;13.07;;;1.57;;
54929;SDS011;40833;53.238;6.576;2023-09-19T06:11:42;10.93;;;2.00;;
54929;SDS011;40833;53.238;6.576;2023-09-19T06:14:08;12.97;;;1.07;;
54929;SDS011;40833;53.238;6.576;2023-09-19T06:16:35;15.50;;;1.80;;
54929;SDS011;40833;53.238;6.576;2023-09-19T06:19:03;17.43;;;1.93;;
54929;SDS011;40833;53.238;6.576;2023-09-19T06:21:31;11.40;;;1.17;;
54929;SDS011;40833;53.238;6.576;2023-09-19T06:23:57;20.17;;;1.90;;
54929;SDS011;40833;53.238;6.576;2023-09-19T06:26:23;10.13;;;1.97;;
54929;SDS011;40833;53.238;6.576;2023-09-19T06:28:51;10.50;;;1.20;;
54929;SDS011;40833;53.238;6.576;2023-09-19T06:31:17;9.40;;;1.10;;
54929;SDS011;40833;53.238;6.576;2023-09-19T06:33:43;8.57;;;0.97;;
54929;SDS011;40833;53.238;6.576;2023-09-19T06:36:09;11.33;;;1.73;;
54929;SDS011;40833;53.238;6.576;2023-09-19T06:38:36;9.40;;;1.90;;
54929;SDS011;40833;53.238;6.576;2023-09-19T06:41:04;13.10;;;1.37;;
54929;SDS011;40833;53.238;6.576;2023-09-19T06:43:34;15.10;;;1.20;;
54929;SDS011;40833;53.238;6.576;2023-09-19T06:46:02;14.87;;;1.33;;
54929;SDS011;40833;53.238;6.576;2023-09-19T06:48:29;14.50;;;1.67;;
54929;SDS011;40833;53.238;6.576;2023-09-19T06:50:55;14.17;;;2.10;;
54929;SDS011;40833;53.238;6.576;2023-09-19T06:53:23;11.03;;;1.17;;
54929;SDS011;40833;53.238;6.576;2023-09-19T06:55:52;7.37;;;1.13;;
54929;SDS011;40833;53.238;6.576;2023-09-19T06:58:18;12.23;;;1.70;;
54929;SDS011;40833;53.238;6.576;2023-09-19T07:00:45;7.77;;;1.20;;
54929;SDS011;40833;53.238;6.576;2023-09-19T07:03:13;14.03;;;1.60;;
54929;SDS011;40833;53.238;6.576;2023-09-19T07:05:41;14.27;;;1.83;;
54929;SDS011;40833;53.238;6.576;2023-09-19T07:08:08;20.90;;;2.50;;
54929;SDS011;40833;53.238;6.576;2023-09-19T07:10:37;13.27;;;1.77;;
54929;SDS011;40833;53.238;6.576;2023-09-19T07:13:06;17.27;;;2.80;;
54929;SDS011;40833;53.238;6.576;2023-09-19T07:15:36;13.73;;;3.20;;
54929;SDS011;40833;53.238;6.576;2023-09-19T07:18:11;10.03;;;1.23;;
54929;SDS011;40833;53.238;6.576;2023-09-19T07:20:39;14.07;;;1.80;;
54929;SDS011;40833;53.238;6.576;2023-09-19T07:23:10;8.03;;;1.37;;
54929;SDS011;40833;53.238;6.576;2023-09-19T07:25:39;10.70;;;1.67;;
54929;SDS011;40833;53.238;6.576;2023-09-19T07:28:05;13.10;;;1.70;;
54929;SDS011;40833;53.238;6.576;2023-09-19T07:30:30;18.10;;;2.00;;
54929;SDS011;40833;53.238;6.576;2023-09-19T07:32:56;12.47;;;1.40;;
54929;SDS011;40833;53.238;6.576;2023-09-19T07:35:22;8.90;;;1.47;;
54929;SDS011;40833;53.238;6.576;2023-09-19T07:37:48;9.90;;;1.70;;
54929;SDS011;40833;53.238;6.576;2023-09-19T07:40:18;9.27;;;2.37;;
54929;SDS011;40833;53.238;6.576;2023-09-19T07:42:44;10.03;;;1.60;;
54929;SDS011;40833;53.238;6.576;2023-09-19T07:45:12;12.10;;;1.60;;
54929;SDS011;40833;53.238;6.576;2023-09-19T07:47:40;9.20;;;1.83;;
54929;SDS011;40833;53.238;6.576;2023-09-19T07:50:10;12.53;;;1.70;;
54929;SDS011;40833;53.238;6.576;2023-09-19T07:52:36;14.10;;;1.70;;
54929;SDS011;40833;53.238;6.576;2023-09-19T07:55:04;15.20;;;1.97;;
54929;SDS011;40833;53.238;6.576;2023-09-19T07:57:35;10.97;;;1.43;;
54929;SDS011;40833;53.238;6.576;2023-09-19T08:00:02;14.87;;;1.70;;
54929;SDS011;40833;53.238;6.576;2023-09-19T08:02:35;12.40;;;1.57;;
54929;SDS011;40833;53.238;6.576;2023-09-19T08:05:05;12.30;;;2.67;;
54929;SDS011;40833;53.238;6.576;2023-09-19T08:07:34;12.53;;;2.30;;
54929;SDS011;40833;53.238;6.576;2023-09-19T08:10:01;15.00;;;1.60;;
54929;SDS011;40833;53.238;6.576;2023-09-19T08:12:28;14.23;;;2.50;;
54929;SDS011;40833;53.238;6.576;2023-09-19T08:14:55;12.43;;;2.13;;
54929;SDS011;40833;53.238;6.576;2023-09-19T08:17:21;9.10;;;1.60;;
54929;SDS011;40833;53.238;6.576;2023-09-19T08:19:48;12.67;;;1.73;;
54929;SDS011;40833;53.238;6.576;2023-09-19T08:22:18;9.13;;;1.27;;
54929;SDS011;40833;53.238;6.576;2023-09-19T08:24:44;17.10;;;1.60;;
54929;SDS011;40833;53.238;6.576;2023-09-19T08:27:11;13.80;;;1.70;;
54929;SDS011;40833;53.238;6.576;2023-09-19T08:29:37;14.80;;;2.17;;
54929;SDS011;40833;53.238;6.576;2023-09-19T08:32:03;12.33;;;1.80;;
54929;SDS011;40833;53.238;6.576;2023-09-19T08:34:29;14.57;;;1.80;;
54929;SDS011;40833;53.238;6.576;2023-09-19T08:36:58;11.07;;;1.67;;
54929;SDS011;40833;53.238;6.576;2023-09-19T08:39:24;13.07;;;1.70;;
54929;SDS011;40833;53.238;6.576;2023-09-19T08:41:57;6.17;;;1.23;;
54929;SDS011;40833;53.238;6.576;2023-09-19T08:44:24;6.60;;;1.47;;
54929;SDS011;40833;53.238;6.576;2023-09-19T08:46:50;7.37;;;1.27;;
54929;SDS011;40833;53.238;6.576;2023-09-19T08:52:32;12.63;;;1.40;;
54929;SDS011;40833;53.238;6.576;2023-09-19T08:55:05;12.57;;;1.43;;
54929;SDS011;40833;53.238;6.576;2023-09-19T08:57:35;12.50;;;1.60;;
54929;SDS011;40833;53.238;6.576;2023-09-19T09:00:04;13.10;;;1.47;;
54929;SDS011;40833;53.238;6.576;2023-09-19T09:02:35;8.40;;;1.40;;
54929;SDS011;40833;53.238;6.576;2023-09-19T09:07:36;15.87;;;2.43;;
54929;SDS011;40833;53.238;6.576;2023-09-19T09:10:04;14.07;;;1.93;;
54929;SDS011;40833;53.238;6.576;2023-09-19T09:12:30;12.23;;;1.47;;
54929;SDS011;40833;53.238;6.576;2023-09-19T09:14:56;15.73;;;1.77;;
54929;SDS011;40833;53.238;6.576;2023-09-19T09:17:25;12.07;;;2.20;;
54929;SDS011;40833;53.238;6.576;2023-09-19T09:19:54;13.70;;;2.03;;
54929;SDS011;40833;53.238;6.576;2023-09-19T09:22:20;10.00;;;1.80;;
54929;SDS011;40833;53.238;6.576;2023-09-19T09:27:23;16.07;;;2.27;;
54929;SDS011;40833;53.238;6.576;2023-09-19T09:29:50;11.77;;;1.67;;
54929;SDS011;40833;53.238;6.576;2023-09-19T09:32:27;12.60;;;2.27;;
54929;SDS011;40833;53.238;6.576;2023-09-19T09:34:55;13.43;;;1.90;;
54929;SDS011;40833;53.238;6.576;2023-09-19T09:37:23;11.13;;;2.63;;
54929;SDS011;40833;53.238;6.576;2023-09-19T09:39:58;13.57;;;2.20;;
54929;SDS011;40833;53.238;6.576;2023-09-19T09:42:44;11.37;;;2.33;;
54929;SDS011;40833;53.238;6.576;2023-09-19T09:48:02;12.60;;;2.47;;
54929;SDS011;40833;53.238;6.576;2023-09-19T09:53:23;17.50;;;2.27;;
54929;SDS011;40833;53.238;6.576;2023-09-19T09:55:59;11.60;;;2.00;;
54929;SDS011;40833;53.238;6.576;2023-09-19T09:58:25;16.33;;;2.30;;
54929;SDS011;40833;53.238;6.576;2023-09-19T10:00:57;19.73;;;2.40;;
54929;SDS011;40833;53.238;6.576;2023-09-19T10:03:40;17.70;;;2.17;;
54929;SDS011;40833;53.238;6.576;2023-09-19T10:06:12;13.87;;;1.90;;
54929;SDS011;40833;53.238;6.576;2023-09-19T10:09:06;13.35;;;2.53;;
54929;SDS011;40833;53.238;6.576;2023-09-19T10:11:59;10.07;;;2.00;;
54929;SDS011;40833;53.238;6.576;2023-09-19T10:14:34;14.10;;;1.85;;
54929;SDS011;40833;53.238;6.576;2023-09-19T10:17:04;12.65;;;1.85;;
54929;SDS011;40833;53.238;6.576;2023-09-19T10:19:38;15.30;;;3.05;;
54929;SDS011;40833;53.238;6.576;2023-09-19T10:22:22;11.52;;;2.47;;
54929;SDS011;40833;53.238;6.576;2023-09-19T10:24:49;18.23;;;2.15;;
54929;SDS011;40833;53.238;6.576;2023-09-19T10:27:17;15.82;;;2.42;;
54929;SDS011;40833;53.238;6.576;2023-09-19T10:29:45;12.93;;;2.05;;
54929;SDS011;40833;53.238;6.576;2023-09-19T10:32:16;14.52;;;2.13;;
54929;SDS011;40833;53.238;6.576;2023-09-19T10:34:45;12.82;;;2.22;;
54929;SDS011;40833;53.238;6.576;2023-09-19T10:37:12;13.77;;;2.58;;
54929;SDS011;40833;53.238;6.576;2023-09-19T10:39:45;10.13;;;1.80;;
54929;SDS011;40833;53.238;6.576;2023-09-19T10:42:13;14.95;;;2.30;;
54929;SDS011;40833;53.238;6.576;2023-09-19T10:44:43;13.15;;;2.17;;
54929;SDS011;40833;53.238;6.576;2023-09-19T10:47:12;12.57;;;1.95;;
54929;SDS011;40833;53.238;6.576;2023-09-19T10:49:43;12.77;;;1.73;;
54929;SDS011;40833;53.238;6.576;2023-09-19T10:54:41;14.30;;;2.35;;
54929;SDS011;40833;53.238;6.576;2023-09-19T10:57:18;17.92;;;2.20;;
54929;SDS011;40833;53.238;6.576;2023-09-19T11:00:07;13.82;;;2.15;;
54929;SDS011;40833;53.238;6.576;2023-09-19T11:06:04;18.80;;;2.10;;
54929;SDS011;40833;53.238;6.576;2023-09-19T11:30:46;18.65;;;2.95;;
54929;SDS011;40833;53.238;6.576;2023-09-19T11:33:22;13.05;;;2.42;;
54929;SDS011;40833;53.238;6.576;2023-09-19T11:36:10;11.20;;;1.63;;
54929;SDS011;40833;53.238;6.576;2023-09-19T11:43:53;9.70;;;1.92;;
54929;SDS011;40833;53.238;6.576;2023-09-19T11:46:24;15.35;;;2.58;;
54929;SDS011;40833;53.238;6.576;2023-09-19T11:48:50;10.60;;;2.13;;
54929;SDS011;40833;53.238;6.576;2023-09-19T11:51:18;16.58;;;2.30;;
54929;SDS011;40833;53.238;6.576;2023-09-19T11:53:53;14.40;;;2.58;;
54929;SDS011;40833;53.238;6.576;2023-09-19T11:56:22;15.52;;;2.90;;
54929;SDS011;40833;53.238;6.576;2023-09-19T11:58:50;11.65;;;2.20;;
54929;SDS011;40833;53.238;6.576;2023-09-19T12:01:29;11.68;;;1.77;;
54929;SDS011;40833;53.238;6.576;2023-09-19T12:03:57;12.30;;;1.90;;
54929;SDS011;40833;53.238;6.576;2023-09-19T12:06:27;18.23;;;2.13;;
54929;SDS011;40833;53.238;6.576;2023-09-19T12:08:54;11.98;;;2.00;;
54929;SDS011;40833;53.238;6.576;2023-09-19T12:11:22;8.63;;;1.70;;
54929;SDS011;40833;53.238;6.576;2023-09-19T12:13:49;9.85;;;1.92;;
54929;SDS011;40833;53.238;6.576;2023-09-19T12:16:19;15.25;;;2.53;;
54929;SDS011;40833;53.238;6.576;2023-09-19T12:18:49;10.88;;;2.67;;
54929;SDS011;40833;53.238;6.576;2023-09-19T12:26:26;13.18;;;1.70;;
54929;SDS011;40833;53.238;6.576;2023-09-19T12:28:54;13.23;;;2.10;;
54929;SDS011;40833;53.238;6.576;2023-09-19T12:31:21;11.73;;;1.77;;
54929;SDS011;40833;53.238;6.576;2023-09-19T12:33:52;14.13;;;2.40;;
54929;SDS011;40833;53.238;6.576;2023-09-19T12:36:22;13.07;;;2.17;;
54929;SDS011;40833;53.238;6.576;2023-09-19T12:38:55;14.52;;;2.50;;
54929;SDS011;40833;53.238;6.576;2023-09-19T12:41:23;11.85;;;2.08;;
54929;SDS011;40833;53.238;6.576;2023-09-19T12:43:51;10.13;;;1.77;;
54929;SDS011;40833;53.238;6.576;2023-09-19T12:46:23;17.02;;;2.15;;
54929;SDS011;40833;53.238;6.576;2023-09-19T12:49:14;15.60;;;3.10;;
54929;SDS011;40833;53.238;6.576;2023-09-19T12:51:45;17.23;;;1.80;;
54929;SDS011;40833;53.238;6.576;2023-09-19T12:54:12;12.25;;;1.35;;
54929;SDS011;40833;53.238;6.576;2023-09-19T12:56:45;11.25;;;1.52;;
54929;SDS011;40833;53.238;6.576;2023-09-19T12:59:13;8.97;;;1.43;;
54929;SDS011;40833;53.238;6.576;2023-09-19T13:01:40;9.90;;;1.60;;
54929;SDS011;40833;53.238;6.576;2023-09-19T13:04:18;9.70;;;1.35;;
54929;SDS011;40833;53.238;6.576;2023-09-19T13:06:48;6.13;;;1.00;;
54929;SDS011;40833;53.238;6.576;2023-09-19T13:09:19;11.80;;;1.80;;
54929;SDS011;40833;53.238;6.576;2023-09-19T13:11:46;12.77;;;1.60;;
54929;SDS011;40833;53.238;6.576;2023-09-19T13:16:55;9.07;;;1.40;;
54929;SDS011;40833;53.238;6.576;2023-09-19T13:20:05;5.05;;;1.10;;
54929;SDS011;40833;53.238;6.576;2023-09-19T13:22:39;9.02;;;1.25;;
54929;SDS011;40833;53.238;6.576;2023-09-19T13:25:14;8.85;;;1.65;;
54929;SDS011;40833;53.238;6.576;2023-09-19T13:27:56;11.93;;;1.60;;
54929;SDS011;40833;53.238;6.576;2023-09-19T13:30:23;10.00;;;1.33;;
54929;SDS011;40833;53.238;6.576;2023-09-19T13:33:09;13.25;;;1.55;;
54929;SDS011;40833;53.238;6.576;2023-09-19T13:35:36;11.85;;;1.40;;
54929;SDS011;40833;53.238;6.576;2023-09-19T13:38:05;8.57;;;1.35;;
54929;SDS011;40833;53.238;6.576;2023-09-19T13:40:34;8.05;;;1.10;;
54929;SDS011;40833;53.238;6.576;2023-09-19T13:43:00;7.32;;;1.30;;
54929;SDS011;40833;53.238;6.576;2023-09-19T13:45:26;14.98;;;1.30;;
54929;SDS011;40833;53.238;6.576;2023-09-19T13:47:55;9.50;;;1.10;;
54929;SDS011;40833;53.238;6.576;2023-09-19T13:50:21;7.43;;;0.90;;
54929;SDS011;40833;53.238;6.576;2023-09-19T13:52:49;7.63;;;1.02;;
54929;SDS011;40833;53.238;6.576;2023-09-19T13:55:19;7.78;;;1.08;;
54929;SDS011;40833;53.238;6.576;2023-09-19T13:57:47;11.68;;;0.63;;
54929;SDS011;40833;53.238;6.576;2023-09-19T14:00:19;8.13;;;0.60;;
54929;SDS011;40833;53.238;6.576;2023-09-19T14:02:45;10.63;;;1.00;;
54929;SDS011;40833;53.238;6.576;2023-09-19T14:05:12;8.82;;;1.05;;
54929;SDS011;40833;53.238;6.576;2023-09-19T14:07:40;7.45;;;0.50;;
54929;SDS011;40833;53.238;6.576;2023-09-19T14:10:06;8.38;;;0.90;;
54929;SDS011;40833;53.238;6.576;2023-09-19T14:12:36;9.35;;;1.13;;
54929;SDS011;40833;53.238;6.576;2023-09-19T14:15:03;4.97;;;0.65;;
54929;SDS011;40833;53.238;6.576;2023-09-19T14:17:33;5.75;;;0.73;;
54929;SDS011;40833;53.238;6.576;2023-09-19T14:19:59;7.85;;;0.70;;
54929;SDS011;40833;53.238;6.576;2023-09-19T14:22:24;13.65;;;1.85;;
54929;SDS011;40833;53.238;6.576;2023-09-19T14:24:50;6.28;;;0.77;;
54929;SDS011;40833;53.238;6.576;2023-09-19T14:27:17;4.90;;;0.70;;
54929;SDS011;40833;53.238;6.576;2023-09-19T14:29:42;4.97;;;0.73;;
54929;SDS011;40833;53.238;6.576;2023-09-19T14:32:08;4.43;;;0.75;;
54929;SDS011;40833;53.238;6.576;2023-09-19T14:34:34;6.90;;;0.98;;
54929;SDS011;40833;53.238;6.576;2023-09-19T14:37:01;3.70;;;0.55;;
54929;SDS011;40833;53.238;6.576;2023-09-19T14:39:29;5.07;;;0.60;;
54929;SDS011;40833;53.238;6.576;2023-09-19T14:41:54;8.63;;;1.00;;
54929;SDS011;40833;53.238;6.576;2023-09-19T14:44:20;7.35;;;1.10;;
54929;SDS011;40833;53.238;6.576;2023-09-19T14:46:46;4.65;;;0.75;;
54929;SDS011;40833;53.238;6.576;2023-09-19T14:49:11;9.52;;;0.73;;
54929;SDS011;40833;53.238;6.576;2023-09-19T14:51:37;10.45;;;0.98;;
54929;SDS011;40833;53.238;6.576;2023-09-19T14:54:09;7.25;;;0.95;;
54929;SDS011;40833;53.238;6.576;2023-09-19T14:56:34;9.13;;;0.80;;
54929;SDS011;40833;53.238;6.576;2023-09-19T14:59:00;3.75;;;0.70;;
54929;SDS011;40833;53.238;6.576;2023-09-19T15:01:26;7.10;;;0.80;;
54929;SDS011;40833;53.238;6.576;2023-09-19T15:03:53;6.80;;;0.77;;
54929;SDS011;40833;53.238;6.576;2023-09-19T15:06:20;8.00;;;1.00;;
54929;SDS011;40833;53.238;6.576;2023-09-19T15:08:46;7.85;;;0.80;;
54929;SDS011;40833;53.238;6.576;2023-09-19T15:11:16;7.78;;;0.90;;
54929;SDS011;40833;53.238;6.576;2023-09-19T15:13:43;4.20;;;1.00;;
54929;SDS011;40833;53.238;6.576;2023-09-19T15:16:09;5.57;;;0.93;;
54929;SDS011;40833;53.238;6.576;2023-09-19T15:18:43;3.33;;;0.70;;
54929;SDS011;40833;53.238;6.576;2023-09-19T15:21:12;6.28;;;0.57;;
54929;SDS011;40833;53.238;6.576;2023-09-19T15:23:39;6.50;;;0.90;;
54929;SDS011;40833;53.238;6.576;2023-09-19T15:26:07;5.47;;;0.55;;
54929;SDS011;40833;53.238;6.576;2023-09-19T15:28:34;6.57;;;0.75;;
54929;SDS011;40833;53.238;6.576;2023-09-19T15:31:21;2.90;;;0.80;;
54929;SDS011;40833;53.238;6.576;2023-09-19T15:33:45;5.13;;;0.80;;
54929;SDS011;40833;53.238;6.576;2023-09-19T15:36:12;8.48;;;0.95;;
54929;SDS011;40833;53.238;6.576;2023-09-19T15:41:24;2.20;;;0.37;;
54929;SDS011;40833;53.238;6.576;2023-09-19T15:43:51;3.95;;;0.98;;
54929;SDS011;40833;53.238;6.576;2023-09-19T15:46:17;7.07;;;1.15;;
54929;SDS011;40833;53.238;6.576;2023-09-19T15:48:42;2.83;;;0.73;;
54929;SDS011;40833;53.238;6.576;2023-09-19T15:51:09;8.32;;;1.38;;
54929;SDS011;40833;53.238;6.576;2023-09-19T15:53:49;3.30;;;0.57;;
54929;SDS011;40833;53.238;6.576;2023-09-19T15:56:19;11.83;;;1.20;;
54929;SDS011;40833;53.238;6.576;2023-09-19T15:58:46;4.47;;;0.83;;
54929;SDS011;40833;53.238;6.576;2023-09-19T16:01:13;12.60;;;1.20;;
54929;SDS011;40833;53.238;6.576;2023-09-19T16:03:42;7.83;;;0.87;;
54929;SDS011;40833;53.238;6.576;2023-09-19T16:06:09;6.07;;;1.07;;
54929;SDS011;40833;53.238;6.576;2023-09-19T16:08:43;6.10;;;1.67;;